Airport View

Enter ICAO identifier to see the current METAR for that AWOS.

KFNL for example

KGFA 222113Z AUTO 36010KT 10SM BKN012 BKN055 14/11 A3013 RMK AO2 CIG 012V035

22 Aug 2014 21:37

Other Area AWOS: KGTF - K79S - KHLN - KLWT

TAF AMD KGFA 2220/2401 04009KT 9999 VCSH BKN010 610703 QNH3004INS TEMPO 2220/2224 6000 -SHRA BR BKN008 BECMG 2223/2224 05009KT 6000 -RA BR OVC005 620703 QNH2998INS TX19/2300Z TN11/2312Z AMD 222013